AirNav   Air Wisconsin pilot careers
 
 805 users online  

4NY9 Belmont Park Heliport
Elmont, New York, USA

GOING TO ELMONT?


FAA INFORMATION EFFECTIVE 16 AUGUST 2018

Location

FAA Identifier: 4NY9
Lat/Long: 40-42-52.3680N / 073-42-37.4710W
40-42.872800N / 073-42.624517W
40.7145467 / -73.7104086
(estimated)
Elevation: 72 ft. / 22 m (estimated)
Variation: 13W (1985)
Time zone: UTC -4 (UTC -5 during Standard Time)
Zip code: 11001

Heliport Operations

Heliport use: Private use. Permission required prior to landing
Activation date: 04/1968
Control tower: no
ARTCC: NEW YORK CENTER
FSS: NEW YORK FLIGHT SERVICE STATION
Attendance: UNATNDD
Wind indicator: no
Segmented circle: no

Heliport Communications

WX ASOS at JFK (5 nm SW): PHONE 718-656-0956
WX ASOS at LGA (8 nm NW): PHONE 718-672-6317
WX ASOS at FRG (14 nm E): PHONE 631-752-8129
WX AWOS-3PT at JRB (14 nm W): 128.175 (212-425-1534)
WX ASOS at TEB (18 nm NW): 132.025 (201-393-0855)

Nearby radio navigation aids

VOR radial/distance  VOR name  Freq  Var
JFKr042/5.6KENNEDY VOR/DME115.9012W
LGAr132/8.3LA GUARDIA VOR/DME113.1012W
CRIr065/10.4CANARSIE VOR/DME112.3011W
TEBr128/17.9TETERBORO VOR/DME108.4011W
DPKr268/19.1DEER PARK VOR/DME117.7012W
COLr051/31.7COLTS NECK VOR/DME115.4011W
CMKr202/34.4CARMEL VOR/DME116.6012W
BDRr237/37.7BRIDGEPORT VOR/DME108.8012W

 
NDB name  Hdg/Dist  Freq  Var  ID
FRIKK264/11.040714WFR ..-. .-.
BRIDGE054/11.841412WOGY --- --. -.--
BABYLON294/15.027514WBBN -... -... -.
CHATHAM106/32.725413WCAT -.-. .- -

Heliport Services

Airframe service: NONE
Powerplant service: NONE

Runway Information

Helipad H1

Dimensions: 75 x 40 ft. / 23 x 12 m
Surface: turf
Latitude: 40-42.872833N
Longitude: 073-42.624500W
Elevation: 72.0 ft.
Traffic pattern: leftleft

Heliport Ownership and Management from official FAA records

Ownership: Privately-owned
Owner: PO BOX 90
JAMAICA, NY 11417
Phone (718) 659-2293
Manager: ROBERT J. SICA
PO BOX 90
JAMAICA, NY 11417
Phone 718-659-2293

Additional Remarks

A52-H1 GRANDSTAND 0.6MI W. TREES 0.1MI SW 0.1MI E.

Instrument Procedures

There are no published instrument procedures at 4NY9.

Some nearby airports with instrument procedures:

KJFK - John F Kennedy International Airport (5 nm SW)
KLGA - LaGuardia Airport (8 nm NW)
6N5 - East 34th Street Heliport (12 nm W)
KFRG - Republic Airport (14 nm E)
KJRB - Downtown Manhattan/Wall Street Heliport (14 nm W)
KJRA - West 30th St Heliport (14 nm W)
KTEB - Teterboro Airport (18 nm NW)
 
Loc | Ops | Rwys | IFR | FBO | Links
Com | Nav | Svcs | Stats | Notes


 
Area around 4NY9 (Belmont Park Heliport)
 
Road maps at: MapQuest Bing Google
 
Aerial photo
No photo
 
Sectional chart

 
Airport distance calculator
Flying to Belmont Park Heliport? Find the distance to fly.

From to 4NY9

Sunrise and sunset
Times for 19-Aug-2018
 Local
(UTC-4)
 Zulu
(UTC)
Morning civil twilight05:4109:41
Sunrise06:1010:10
Sunset19:4723:47
Evening civil twilight20:1600:16

Current date and time
Zulu (UTC)  19-Aug-2018 12:24:56
Local (UTC-4)  19-Aug-2018 08:24:56
 
METAR
KJFK 
6nm SW 
191151Z 04012KT 10SM BKN014 OVC027 20/19 A2993 RMK AO2 RAB04E25 SLP136 P0000 60000 70014 T02000189 10217 20200 51020
KLGA 
9nm NW 
191151Z 04012KT 8SM -RA BKN014 BKN024 OVC130 22/18 A2993 RMK AO2 RAB27 SLP134 P0000 60000 70002 T02170183 10228 20217 53018 $
KNYC 
12nm W 
191151Z AUTO VRB05KT 10SM OVC015 21/18 A2996 RMK AO2 SLP137 70001 T02110183 10222 20206 53019 $
KFRG 
13nm E 
191153Z 05008KT 10SM BKN011 OVC017 19/18 A2993 RMK AO2 SLP136 70055 T01940178 10211 20194 53020
KJRB 
14nm W 
191156Z AUTO 10SM OVC016 22/19 A2994 RMK AO2 SLP137 60000 70008 T02220194 10233 20217 53019 $
KTEB 
18nm NW 
191154Z 04006KT 1 1/2SM -RA BR BKN007 BKN013 OVC021 20/19 A2993 RMK AO2 P0001 T02000194 $
TAF
KJFK 
6nm SW 
191120Z 1912/2018 04015G20KT P6SM BKN015 TEMPO 1912/1916 -SHRA FM192100 04011KT P6SM BKN020 FM200300 03008KT P6SM BKN015 FM201500 04010KT P6SM BKN025
KLGA 
9nm NW 
191120Z 1912/2018 05020KT P6SM BKN015 TEMPO 1912/1916 -SHRA FM192100 04011KT P6SM BKN020 FM201500 04010KT P6SM BKN025
KTEB 
18nm NW 
191120Z 1912/2018 02010KT P6SM BKN015 TEMPO 1912/1916 -SHRA FM192000 04008KT P6SM BKN020 FM201500 04010KT P6SM BKN025
NOTAMs
Click for the latest NOTAMs
NOTAMs are issued by the DoD/FAA and will open in a separate window not controlled by AirNav.

 

 
 

Would you like to see your business listed on this page?

 If your business provides an interesting product or service to pilots, flight crews, aircraft, or users of the Belmont Park Heliport, you should consider listing it here.  To start the listing process, click on the button below
 
Add a business
 

Other Pages about Belmont Park Heliport

Update a link
 
Copyright © AirNav, LLC. All rights reserved. Privacy Policy  Contact